Time;durP1;ratioP1;P1;durP2;ratioP2;P2;SDS_P1;SDS_P2;PMS_P1;PMS_P2;Temp;Humidity;BMP_temperature;BMP_pressure;BME280_temperature;BME280_humidity;BME280_pressure;Samples;Min_cycle;Max_cycle;Signal;HPM_P1;HPM_P2
2023/12/08 04:01:51;;;;;;;3.67;3.20;;;23.40;23.60;;;;;;5336990;22;46257;-88
2023/12/08 04:04:16;;;;;;;3.50;3.20;;;23.40;23.70;;;;;;4916353;28;44953;-83
2023/12/08 04:06:42;;;;;;;3.20;2.90;;;23.40;23.70;;;;;;4929596;28;45271;-84
2023/12/08 04:09:08;;;;;;;3.83;3.10;;;23.40;23.70;;;;;;4943319;28;45362;-86
2023/12/08 04:11:34;;;;;;;3.25;2.95;;;23.30;23.60;;;;;;4938180;28;45375;-86
2023/12/08 04:13:59;;;;;;;3.15;2.85;;;23.30;23.70;;;;;;4943216;28;45205;-82
2023/12/08 04:17:51;;;;;;;3.50;3.05;;;23.30;23.70;;;;;;4854560;29;45624;-88
2023/12/08 04:21:59;;;;;;;3.30;3.00;;;23.30;23.60;;;;;;4803091;29;45421;-87
2023/12/08 04:45:29;;;;;;;2.80;2.53;;;23.20;23.70;;;;;;4682509;30;45338;-80
2023/12/08 04:56:58;;;;;;;2.90;2.60;;;23.20;23.80;;;;;;4677627;30;44871;-83
2023/12/08 05:33:35;;;;;;;3.40;3.10;;;23.00;23.80;;;;;;4932938;28;45269;-87
2023/12/08 05:37:38;;;;;;;3.07;2.77;;;23.00;23.80;;;;;;4966263;28;45354;-84
2023/12/08 05:49:48;;;;;;;3.17;2.88;;;23.00;23.90;;;;;;4703166;30;44821;-85
2023/12/08 05:59:54;;;;;;;2.88;2.67;;;23.00;23.90;;;;;;5050202;27;44882;-46
2023/12/08 06:02:20;;;;;;;3.20;2.90;;;22.90;23.90;;;;;;5008568;28;45367;-43
2023/12/08 06:04:46;;;;;;;3.35;3.05;;;23.00;23.90;;;;;;5032246;28;46933;-43
2023/12/08 06:07:12;;;;;;;3.50;3.20;;;22.90;23.90;;;;;;4982975;28;46410;-44
2023/12/08 06:09:37;;;;;;;3.83;3.27;;;22.90;23.90;;;;;;5028705;28;45965;-44
2023/12/08 06:12:03;;;;;;;3.47;3.17;;;22.90;23.90;;;;;;5002625;28;45724;-43
2023/12/08 06:14:28;;;;;;;3.50;2.95;;;22.90;23.90;;;;;;5026863;28;46377;-43
2023/12/08 06:16:54;;;;;;;3.90;3.40;;;22.90;23.90;;;;;;5012253;28;45669;-43
2023/12/08 06:19:19;;;;;;;3.50;3.20;;;22.90;23.90;;;;;;5024454;28;45740;-44
2023/12/08 06:21:45;;;;;;;3.10;2.80;;;22.90;23.90;;;;;;5019579;28;45355;-44
2023/12/08 06:24:11;;;;;;;3.83;3.40;;;22.90;23.90;;;;;;5033079;28;46584;-44
2023/12/08 06:26:39;;;;;;;3.70;3.40;;;22.90;23.90;;;;;;4997527;28;45757;-43
2023/12/08 06:29:05;;;;;;;3.85;3.30;;;22.90;23.90;;;;;;5017774;28;46060;-43
2023/12/08 06:31:31;;;;;;;3.43;3.13;;;22.90;23.90;;;;;;5001982;28;45731;-44
2023/12/08 06:33:56;;;;;;;3.85;3.45;;;22.90;23.90;;;;;;5013879;28;46394;-45
2023/12/08 06:36:23;;;;;;;3.83;3.42;;;22.80;23.90;;;;;;4996040;28;45329;-43
2023/12/08 06:38:49;;;;;;;3.83;3.53;;;22.90;23.90;;;;;;5026314;28;45425;-45
2023/12/08 06:41:14;;;;;;;4.00;3.60;;;22.90;23.90;;;;;;5019954;28;45495;-42
2023/12/08 06:43:40;;;;;;;3.40;3.10;;;22.80;23.90;;;;;;5032947;28;45425;-44
2023/12/08 06:46:05;;;;;;;3.90;3.43;;;22.90;23.90;;;;;;5014779;28;45185;-42
2023/12/08 06:48:31;;;;;;;3.63;3.30;;;22.80;23.90;;;;;;5026213;28;45039;-43
2023/12/08 06:50:56;;;;;;;4.63;3.77;;;22.80;23.90;;;;;;5017998;28;45360;-43
2023/12/08 06:53:23;;;;;;;4.00;3.60;;;22.80;23.90;;;;;;5007183;28;47712;-43
2023/12/08 06:55:48;;;;;;;4.40;3.78;;;22.80;23.90;;;;;;4988498;28;45632;-44
2023/12/08 06:58:14;;;;;;;4.00;3.30;;;22.80;24.00;;;;;;5016410;28;47315;-42
2023/12/08 07:00:39;;;;;;;4.28;3.83;;;22.80;23.90;;;;;;5013409;28;45230;-44
2023/12/08 07:03:05;;;;;;;4.22;3.83;;;22.80;24.00;;;;;;5020110;28;45585;-44
2023/12/08 07:05:31;;;;;;;4.13;3.60;;;22.80;23.90;;;;;;5021623;28;45949;-43
2023/12/08 07:07:57;;;;;;;3.87;3.47;;;22.80;24.00;;;;;;5028868;28;45251;-45
2023/12/08 07:10:23;;;;;;;3.90;3.50;;;22.80;24.00;;;;;;5011775;28;45195;-43
2023/12/08 07:12:48;;;;;;;4.13;3.73;;;22.80;24.00;;;;;;5017165;28;45272;-44
2023/12/08 07:15:14;;;;;;;4.23;3.60;;;22.70;23.90;;;;;;4988463;28;45838;-46
2023/12/08 07:17:40;;;;;;;3.83;3.47;;;22.70;23.90;;;;;;5005788;28;46218;-43
2023/12/08 07:20:10;;;;;;;4.10;3.65;;;22.70;23.90;;;;;;5011329;28;45355;-45
2023/12/08 07:22:36;;;;;;;4.30;3.80;;;22.70;23.90;;;;;;4995775;28;45275;-43
2023/12/08 07:25:07;;;;;;;4.43;4.03;;;22.70;24.00;;;;;;5021460;28;45358;-45
2023/12/08 07:27:33;;;;;;;4.18;3.78;;;22.70;24.00;;;;;;5006595;28;46153;-43
2023/12/08 07:29:58;;;;;;;4.33;3.70;;;22.70;24.00;;;;;;5019269;28;45280;-45
2023/12/08 07:32:24;;;;;;;4.30;3.77;;;22.70;24.00;;;;;;4986205;28;45379;-45
2023/12/08 07:34:50;;;;;;;4.10;3.70;;;22.70;24.00;;;;;;5012828;28;45581;-44
2023/12/08 07:37:16;;;;;;;3.92;3.53;;;22.70;24.00;;;;;;5001682;28;45666;-43
2023/12/08 07:39:42;;;;;;;4.03;3.60;;;22.70;24.00;;;;;;5007153;28;45289;-43
2023/12/08 07:42:07;;;;;;;4.27;3.77;;;22.70;24.00;;;;;;5004986;28;45290;-44
2023/12/08 07:44:34;;;;;;;3.63;3.27;;;22.60;24.00;;;;;;5020225;28;45688;-43
2023/12/08 07:47:00;;;;;;;4.65;3.83;;;22.60;24.00;;;;;;4993306;28;45510;-43
2023/12/08 07:49:26;;;;;;;4.90;3.80;;;22.60;24.00;;;;;;5008881;28;45643;-43
2023/12/08 07:51:51;;;;;;;4.20;3.63;;;22.60;24.00;;;;;;5007651;28;45789;-43
2023/12/08 07:54:17;;;;;;;4.47;4.03;;;22.60;24.00;;;;;;4996054;28;45734;-44
2023/12/08 07:56:42;;;;;;;4.00;3.60;;;22.60;24.00;;;;;;4984014;28;45231;-43
2023/12/08 07:59:08;;;;;;;4.07;3.63;;;22.60;24.10;;;;;;5011946;28;45227;-44
2023/12/08 08:01:35;;;;;;;4.00;3.60;;;22.50;24.00;;;;;;4999181;28;47460;-41
2023/12/08 08:04:01;;;;;;;4.10;3.70;;;22.60;24.10;;;;;;5006198;28;45250;-43
2023/12/08 08:06:26;;;;;;;4.47;3.90;;;22.50;24.10;;;;;;5001018;28;45726;-43
2023/12/08 08:08:52;;;;;;;4.10;3.70;;;22.60;24.10;;;;;;5012950;28;45238;-42
2023/12/08 08:11:17;;;;;;;4.27;3.87;;;22.50;24.10;;;;;;4985301;28;45293;-43
2023/12/08 08:13:43;;;;;;;4.27;3.73;;;22.50;24.10;;;;;;5015216;28;45826;-42
2023/12/08 08:16:09;;;;;;;4.30;3.70;;;22.50;24.10;;;;;;4990886;28;45498;-40
2023/12/08 08:18:35;;;;;;;4.05;3.47;;;22.50;24.60;;;;;;5008873;28;45802;-38
2023/12/08 08:21:00;;;;;;;4.80;3.70;;;22.50;24.10;;;;;;5005353;28;45577;-40
2023/12/08 08:23:26;;;;;;;4.25;3.67;;;22.50;24.10;;;;;;5007930;28;45640;-39
2023/12/08 08:25:52;;;;;;;4.57;3.72;;;22.50;24.10;;;;;;5005388;28;45879;-39
2023/12/08 08:28:18;;;;;;;4.10;3.70;;;22.50;24.10;;;;;;4991178;28;46545;-39
2023/12/08 08:30:44;;;;;;;4.93;3.78;;;22.50;24.20;;;;;;4991584;28;45275;-39
2023/12/08 08:33:10;;;;;;;3.73;3.40;;;22.50;24.20;;;;;;5013022;28;45102;-40
2023/12/08 08:35:37;;;;;;;4.33;3.93;;;22.50;24.20;;;;;;4977877;28;45646;-39
2023/12/08 08:38:02;;;;;;;4.38;3.80;;;22.50;24.20;;;;;;4997633;28;45572;-39
2023/12/08 08:40:29;;;;;;;4.80;3.60;;;22.50;24.50;;;;;;5001364;28;45461;-40
2023/12/08 08:42:54;;;;;;;4.60;3.80;;;22.40;24.10;;;;;;5013266;28;45323;-38
2023/12/08 08:45:21;;;;;;;3.63;3.33;;;22.40;24.10;;;;;;4996507;28;45729;-39
2023/12/08 08:47:47;;;;;;;3.95;3.55;;;22.40;24.20;;;;;;5008389;28;45221;-38
2023/12/08 08:50:13;;;;;;;4.03;3.63;;;22.40;24.20;;;;;;5006334;28;45889;-38
2023/12/08 08:52:39;;;;;;;4.18;3.65;;;22.40;24.20;;;;;;4995231;28;45423;-39
2023/12/08 08:55:10;;;;;;;4.23;3.83;;;22.40;24.20;;;;;;4997732;28;50472;-46
2023/12/08 08:57:36;;;;;;;4.43;3.90;;;22.40;24.30;;;;;;5000732;28;45355;-43
2023/12/08 09:00:04;;;;;;;4.97;4.28;;;22.40;24.30;;;;;;5012490;28;45842;-45
2023/12/08 09:02:35;;;;;;;4.90;4.40;;;22.30;24.30;;;;;;4984513;28;47157;-43
2023/12/08 09:05:01;;;;;;;4.90;4.40;;;22.30;24.30;;;;;;5008069;28;45613;-42
2023/12/08 09:07:26;;;;;;;5.20;4.37;;;22.30;24.30;;;;;;4996323;28;45459;-42
2023/12/08 09:09:52;;;;;;;4.80;4.30;;;22.30;24.40;;;;;;5013594;28;45295;-42
2023/12/08 09:12:17;;;;;;;4.67;4.17;;;22.30;24.40;;;;;;4998878;28;45626;-44
2023/12/08 09:14:43;;;;;;;5.07;4.53;;;22.30;24.40;;;;;;5011223;28;45558;-42
2023/12/08 09:17:08;;;;;;;5.70;4.47;;;22.30;24.40;;;;;;4989640;28;45671;-45
2023/12/08 09:19:35;;;;;;;4.80;4.27;;;22.30;24.40;;;;;;5011010;28;45507;-43
2023/12/08 09:22:00;;;;;;;5.15;4.55;;;22.20;24.40;;;;;;5005121;28;45506;-41
2023/12/08 09:24:26;;;;;;;4.60;4.00;;;22.20;24.40;;;;;;5010064;28;45894;-41
2023/12/08 09:26:55;;;;;;;4.68;4.18;;;22.20;24.40;;;;;;4993264;28;45430;-43
2023/12/08 09:29:21;;;;;;;5.10;4.60;;;22.20;24.40;;;;;;5011025;28;45351;-42
2023/12/08 09:31:47;;;;;;;4.50;4.03;;;22.20;24.40;;;;;;4995676;28;45160;-42
2023/12/08 09:34:12;;;;;;;5.32;4.72;;;22.20;24.50;;;;;;4994808;28;45322;-38
2023/12/08 09:36:38;;;;;;;4.63;4.10;;;22.20;24.40;;;;;;4994662;28;45272;-39
2023/12/08 09:39:04;;;;;;;5.82;4.47;;;22.20;24.50;;;;;;5002252;28;45200;-39
2023/12/08 09:41:30;;;;;;;5.30;4.20;;;22.20;24.50;;;;;;4998416;28;45205;-38
2023/12/08 09:44:14;;;;;;;5.35;4.40;;;22.20;24.50;;;;;;5011820;28;45869;-39
2023/12/08 09:46:45;;;;;;;4.57;4.18;;;22.20;24.50;;;;;;4989152;28;45633;-39
2023/12/08 09:49:21;;;;;;;5.33;4.30;;;22.20;24.50;;;;;;4995157;28;45312;-39
2023/12/08 09:51:47;;;;;;;4.78;4.30;;;22.20;24.60;;;;;;5000242;28;45572;-38
2023/12/08 09:54:12;;;;;;;4.57;4.17;;;22.20;24.60;;;;;;4994387;28;44964;-40
2023/12/08 09:56:38;;;;;;;4.57;4.13;;;22.20;24.60;;;;;;4995916;28;45484;-38
2023/12/08 09:59:04;;;;;;;5.03;4.23;;;22.20;24.60;;;;;;5009810;28;45329;-38
2023/12/08 10:01:29;;;;;;;4.57;4.13;;;22.20;24.60;;;;;;4972511;28;45765;-38
2023/12/08 10:03:55;;;;;;;4.80;4.30;;;22.30;24.70;;;;;;5009537;28;45533;-39
2023/12/08 10:06:20;;;;;;;4.30;3.90;;;22.20;24.60;;;;;;5000475;28;44937;-39
2023/12/08 10:08:46;;;;;;;5.10;4.60;;;22.20;24.60;;;;;;5005050;28;45061;-39
2023/12/08 10:11:11;;;;;;;4.97;4.40;;;22.30;24.70;;;;;;5003696;28;45533;-39
2023/12/08 10:13:37;;;;;;;4.20;3.80;;;22.30;24.70;;;;;;5015763;28;44997;-38
2023/12/08 10:16:03;;;;;;;4.57;4.07;;;22.30;24.70;;;;;;4975262;28;45838;-39
2023/12/08 10:18:28;;;;;;;5.00;4.18;;;22.30;24.70;;;;;;5005052;28;45273;-38
2023/12/08 10:21:15;;;;;;;4.68;4.15;;;22.30;24.70;;;;;;4999480;28;45400;-39
2023/12/08 10:23:45;;;;;;;4.40;4.00;;;22.30;24.70;;;;;;5011504;28;45701;-39
2023/12/08 10:26:12;;;;;;;3.80;3.50;;;22.30;24.70;;;;;;4991978;28;45454;-38
2023/12/08 10:28:42;;;;;;;4.30;3.90;;;22.30;24.70;;;;;;5011144;28;47297;-39
2023/12/08 10:31:08;;;;;;;4.87;4.30;;;22.30;24.70;;;;;;4978953;28;45442;-37
2023/12/08 10:33:34;;;;;;;4.22;3.75;;;22.30;24.80;;;;;;4983291;28;47655;-38
2023/12/08 10:36:00;;;;;;;4.25;3.85;;;22.40;24.80;;;;;;4989170;28;45185;-39
2023/12/08 10:38:25;;;;;;;4.60;3.77;;;22.40;24.80;;;;;;5005579;28;45178;-38
2023/12/08 10:40:52;;;;;;;4.73;4.30;;;22.40;24.80;;;;;;4995918;28;49966;-42
2023/12/08 10:43:25;;;;;;;5.03;4.28;;;22.40;24.80;;;;;;4996328;28;45895;-42
2023/12/08 10:45:54;;;;;;;4.28;3.88;;;22.40;24.80;;;;;;4995987;28;45242;-42
2023/12/08 10:48:20;;;;;;;4.65;4.15;;;22.40;24.80;;;;;;5010263;28;45509;-43
2023/12/08 10:50:56;;;;;;;4.60;4.10;;;22.50;24.80;;;;;;5000167;28;45740;-43
2023/12/08 10:53:22;;;;;;;4.65;4.15;;;22.50;24.80;;;;;;4997059;28;45833;-43
2023/12/08 10:55:52;;;;;;;5.23;4.10;;;22.50;24.80;;;;;;4983829;28;45301;-43
2023/12/08 10:58:20;;;;;;;4.30;3.90;;;22.50;24.80;;;;;;5009191;28;45764;-41
2023/12/08 11:00:45;;;;;;;4.70;4.20;;;22.50;24.80;;;;;;4992999;28;45456;-43
2023/12/08 11:03:11;;;;;;;4.87;4.03;;;22.50;24.80;;;;;;5005213;28;45600;-42
2023/12/08 11:05:38;;;;;;;4.40;3.90;;;22.60;24.80;;;;;;4969489;28;45314;-43
2023/12/08 11:08:05;;;;;;;4.70;4.05;;;22.60;24.80;;;;;;5006249;28;45538;-41
2023/12/08 11:10:32;;;;;;;5.05;4.10;;;22.60;24.80;;;;;;4982223;28;45446;-43
2023/12/08 11:13:07;;;;;;;4.50;3.73;;;22.60;24.80;;;;;;4996975;28;46203;-42
2023/12/08 11:15:33;;;;;;;4.95;4.07;;;22.60;24.80;;;;;;4977932;28;45313;-42
2023/12/08 11:18:12;;;;;;;4.60;4.10;;;22.70;24.80;;;;;;4992163;28;45583;-42
2023/12/08 11:20:38;;;;;;;4.35;3.92;;;22.60;24.80;;;;;;4981544;28;45284;-42
2023/12/08 11:23:04;;;;;;;5.00;4.20;;;22.70;24.80;;;;;;5009288;28;45546;-44
2023/12/08 11:25:33;;;;;;;5.00;4.30;;;22.70;24.80;;;;;;4992034;28;45343;-42
2023/12/08 11:28:02;;;;;;;5.22;4.38;;;22.70;24.80;;;;;;5006195;28;45689;-42
2023/12/08 11:30:48;;;;;;;4.38;3.70;;;22.70;24.80;;;;;;4980602;28;46418;-42
2023/12/08 11:33:28;;;;;;;4.93;3.90;;;22.70;24.70;;;;;;4992089;28;45306;-41
2023/12/08 11:36:04;;;;;;;4.70;4.20;;;22.80;24.80;;;;;;4988459;28;45440;-41
2023/12/08 11:38:30;;;;;;;4.38;3.90;;;22.80;24.80;;;;;;4989172;28;46600;-42
2023/12/08 11:40:56;;;;;;;4.22;3.63;;;22.80;24.80;;;;;;4990329;28;45725;-41
2023/12/08 11:43:23;;;;;;;4.47;3.53;;;22.80;24.80;;;;;;4981310;28;45921;-41
2023/12/08 11:45:49;;;;;;;3.85;3.50;;;22.90;24.80;;;;;;4997849;28;45775;-42
2023/12/08 11:48:15;;;;;;;4.80;3.90;;;22.90;24.70;;;;;;4975435;28;45269;-41
2023/12/08 11:50:41;;;;;;;5.53;3.70;;;22.90;24.70;;;;;;4998264;28;45267;-41
2023/12/08 11:53:07;;;;;;;4.25;3.53;;;23.00;24.70;;;;;;4994358;28;44904;-41
2023/12/08 11:55:32;;;;;;;5.20;3.90;;;23.00;24.70;;;;;;4995625;28;45240;-41
2023/12/08 11:58:04;;;;;;;4.87;3.40;;;23.00;24.70;;;;;;5011449;28;47783;-42
2023/12/08 12:00:31;;;;;;;3.75;3.35;;;23.00;24.70;;;;;;4999911;28;45149;-42
2023/12/08 12:02:57;;;;;;;3.90;3.40;;;23.10;24.70;;;;;;4988944;28;45584;-42
2023/12/08 12:05:23;;;;;;;3.97;3.57;;;23.10;24.70;;;;;;5007711;28;45058;-42
2023/12/08 12:07:50;;;;;;;3.33;2.95;;;23.10;24.70;;;;;;5003092;28;45194;-42
2023/12/08 12:10:18;;;;;;;3.83;3.25;;;23.20;24.70;;;;;;4988878;28;45315;-41
2023/12/08 12:12:53;;;;;;;3.83;3.33;;;23.20;24.60;;;;;;4977475;28;46326;-41
2023/12/08 12:15:19;;;;;;;3.70;3.40;;;23.30;24.60;;;;;;4987549;28;45057;-42
2023/12/08 12:17:46;;;;;;;5.30;3.47;;;23.30;24.60;;;;;;5006722;28;45492;-48
2023/12/08 12:20:12;;;;;;;3.63;3.17;;;23.30;24.60;;;;;;5004100;28;45223;-41
2023/12/08 12:22:40;;;;;;;3.40;3.10;;;23.30;24.60;;;;;;4990292;28;46625;-43
2023/12/08 12:25:10;;;;;;;5.10;3.10;;;23.30;24.60;;;;;;5010440;28;45261;-43
2023/12/08 12:27:43;;;;;;;3.08;2.78;;;23.40;24.50;;;;;;5007685;28;45563;-42
2023/12/08 12:30:10;;;;;;;3.83;3.13;;;23.40;24.50;;;;;;5006371;28;46824;-43
2023/12/08 12:32:36;;;;;;;3.90;3.10;;;23.40;24.50;;;;;;4994291;28;45318;-42
2023/12/08 12:35:06;;;;;;;3.75;2.90;;;23.40;24.50;;;;;;5011632;28;45469;-42
2023/12/08 12:37:32;;;;;;;3.30;3.00;;;23.50;24.50;;;;;;4985426;28;45456;-42
2023/12/08 12:39:58;;;;;;;3.53;2.85;;;23.50;24.40;;;;;;5008891;28;45239;-42
2023/12/08 12:42:23;;;;;;;3.40;3.10;;;23.50;24.50;;;;;;5008904;28;45329;-42
2023/12/08 12:44:49;;;;;;;3.50;3.00;;;23.50;24.40;;;;;;5000493;28;45582;-42
2023/12/08 12:47:26;;;;;;;3.45;2.95;;;23.50;24.40;;;;;;4989703;28;45744;-42
2023/12/08 12:52:36;;;;;;;3.38;2.90;;;23.60;24.40;;;;;;5005329;28;45280;-41
2023/12/08 12:55:02;;;;;;;3.03;2.72;;;23.60;24.40;;;;;;5010614;28;45299;-42
2023/12/08 12:57:48;;;;;;;3.78;3.10;;;23.60;24.40;;;;;;4984472;28;45401;-41
2023/12/08 13:00:15;;;;;;;3.72;2.85;;;23.60;24.40;;;;;;5002151;28;45410;-43
2023/12/08 13:02:42;;;;;;;3.38;2.85;;;23.60;24.40;;;;;;4992024;28;45982;-42
2023/12/08 13:05:12;;;;;;;3.40;3.10;;;23.70;24.40;;;;;;4998011;28;45957;-43
2023/12/08 13:07:39;;;;;;;3.28;2.97;;;23.70;24.40;;;;;;4971177;28;45128;-41
2023/12/08 13:12:33;;;;;;;4.17;3.30;;;23.70;24.30;;;;;;4983283;28;46252;-42
2023/12/08 13:14:59;;;;;;;3.30;3.00;;;23.70;24.40;;;;;;4990294;28;45480;-42
2023/12/08 13:17:25;;;;;;;3.22;2.90;;;23.70;24.30;;;;;;4966081;28;45313;-42
2023/12/08 13:19:52;;;;;;;4.00;3.20;;;23.70;24.30;;;;;;4985183;28;45058;-42
2023/12/08 13:22:20;;;;;;;3.20;2.90;;;23.70;24.30;;;;;;4964180;28;45901;-42
2023/12/08 13:24:47;;;;;;;4.00;3.20;;;23.70;24.30;;;;;;4943694;28;45323;-42
2023/12/08 13:27:16;;;;;;;3.53;3.13;;;23.70;24.30;;;;;;4962028;28;45302;-42
2023/12/08 13:29:41;;;;;;;3.73;2.90;;;23.70;24.30;;;;;;4989850;28;45477;-43
2023/12/08 13:32:07;;;;;;;4.18;2.92;;;23.70;24.80;;;;;;4972433;28;45083;-44
2023/12/08 13:34:33;;;;;;;3.45;2.90;;;23.70;24.30;;;;;;4976464;28;45458;-42
2023/12/08 13:36:58;;;;;;;4.15;3.33;;;23.70;24.30;;;;;;4958590;28;45727;-45
2023/12/08 13:39:24;;;;;;;3.50;2.90;;;23.70;24.30;;;;;;4969802;28;45510;-42
2023/12/08 13:41:49;;;;;;;4.30;3.37;;;23.80;24.30;;;;;;4943052;28;45534;-42
2023/12/08 13:44:15;;;;;;;2.97;2.67;;;23.80;24.30;;;;;;4978278;28;45137;-42
2023/12/08 13:46:40;;;;;;;3.35;2.90;;;23.80;24.30;;;;;;4969072;28;45560;-42
2023/12/08 13:49:07;;;;;;;4.10;3.17;;;23.80;24.30;;;;;;4989719;28;45735;-42
2023/12/08 13:51:33;;;;;;;3.70;3.20;;;23.80;24.30;;;;;;4983748;28;45319;-42
2023/12/08 13:53:59;;;;;;;3.47;2.78;;;23.80;24.30;;;;;;4987799;28;45409;-42
2023/12/08 13:56:26;;;;;;;3.23;2.90;;;23.80;24.30;;;;;;4982443;28;45655;-44
2023/12/08 13:58:51;;;;;;;3.30;2.80;;;23.80;24.30;;;;;;4974192;28;45678;-42
2023/12/08 14:01:17;;;;;;;3.80;3.10;;;23.80;24.20;;;;;;4971702;28;45351;-42
2023/12/08 14:03:42;;;;;;;3.63;3.00;;;23.80;24.30;;;;;;4985859;28;45441;-42
2023/12/08 14:06:08;;;;;;;3.27;2.70;;;23.80;24.20;;;;;;4958731;28;45294;-41
2023/12/08 14:08:33;;;;;;;3.37;2.90;;;23.80;24.20;;;;;;4986709;28;45253;-41
2023/12/08 14:10:59;;;;;;;3.70;3.33;;;23.80;24.20;;;;;;4981017;28;45597;-42
2023/12/08 14:13:25;;;;;;;3.20;2.87;;;23.80;24.20;;;;;;4992915;28;45312;-41
2023/12/08 14:15:51;;;;;;;3.53;3.07;;;23.80;24.20;;;;;;4944433;28;45095;-38
2023/12/08 14:18:17;;;;;;;3.90;3.17;;;23.80;24.20;;;;;;4959449;28;45709;-38
2023/12/08 14:20:42;;;;;;;3.47;2.90;;;23.80;24.20;;;;;;4983233;28;46147;-39
2023/12/08 14:23:08;;;;;;;3.73;3.10;;;23.80;24.20;;;;;;4993145;28;45906;-38
2023/12/08 14:25:34;;;;;;;3.47;3.07;;;23.80;24.20;;;;;;4968459;28;45809;-39
2023/12/08 14:27:59;;;;;;;3.47;3.00;;;23.80;24.20;;;;;;4991994;28;45668;-38
2023/12/08 14:30:25;;;;;;;3.17;2.80;;;23.80;24.20;;;;;;4981647;28;45467;-39
2023/12/08 14:32:50;;;;;;;3.63;3.00;;;23.80;24.20;;;;;;4950654;28;46586;-39
2023/12/08 14:35:16;;;;;;;3.83;2.60;;;23.80;24.20;;;;;;4953199;28;45422;-39
2023/12/08 14:37:41;;;;;;;3.25;2.95;;;23.80;24.20;;;;;;4986053;28;45342;-38
2023/12/08 14:40:10;;;;;;;3.00;2.70;;;23.80;24.20;;;;;;4954446;28;46957;-43
2023/12/08 14:42:36;;;;;;;3.53;2.97;;;23.80;24.20;;;;;;4939065;28;45293;-39
2023/12/08 14:45:02;;;;;;;4.05;3.00;;;23.80;24.20;;;;;;4991587;28;45669;-38
2023/12/08 14:47:28;;;;;;;3.63;2.78;;;23.80;24.20;;;;;;4975469;28;45557;-39
2023/12/08 14:49:53;;;;;;;3.25;2.80;;;23.80;24.20;;;;;;4989130;28;45377;-38
2023/12/08 14:52:20;;;;;;;3.47;3.05;;;23.80;24.20;;;;;;4937905;28;45779;-38
2023/12/08 14:54:45;;;;;;;3.40;3.10;;;23.80;24.20;;;;;;4977235;28;44720;-39
2023/12/08 14:57:11;;;;;;;3.42;3.13;;;23.80;24.20;;;;;;4985620;28;45725;-38
2023/12/08 14:59:37;;;;;;;3.67;3.30;;;23.80;24.20;;;;;;4982918;28;45600;-39
2023/12/08 15:02:03;;;;;;;3.38;3.08;;;23.80;24.20;;;;;;4969046;28;45826;-38
2023/12/08 15:04:29;;;;;;;3.38;2.90;;;23.80;24.20;;;;;;4984755;28;45257;-39
2023/12/08 15:06:54;;;;;;;3.47;3.08;;;23.80;24.20;;;;;;4976261;28;45450;-39
2023/12/08 15:09:20;;;;;;;3.30;3.00;;;23.80;24.20;;;;;;4983303;28;45593;-38
2023/12/08 15:11:45;;;;;;;3.78;2.92;;;23.80;24.20;;;;;;4943788;28;45622;-38
2023/12/08 15:14:11;;;;;;;3.88;3.20;;;23.80;24.20;;;;;;4957350;28;45320;-39
2023/12/08 15:16:36;;;;;;;3.50;3.13;;;23.80;24.20;;;;;;4959912;28;46197;-38
2023/12/08 15:19:02;;;;;;;3.55;3.25;;;23.70;24.20;;;;;;4971693;28;45593;-39
2023/12/08 15:21:28;;;;;;;3.33;3.03;;;23.80;24.20;;;;;;4975422;28;46006;-39
2023/12/08 15:23:54;;;;;;;3.55;3.05;;;23.70;24.20;;;;;;4977533;28;45371;-39
2023/12/08 15:26:20;;;;;;;3.23;2.80;;;23.80;24.30;;;;;;4973699;28;45725;-38
2023/12/08 15:28:46;;;;;;;3.20;2.90;;;23.80;24.20;;;;;;4980846;28;46219;-39
2023/12/08 15:31:11;;;;;;;3.20;2.90;;;23.80;24.30;;;;;;4954790;28;46216;-39
2023/12/08 15:33:40;;;;;;;3.30;3.00;;;23.70;24.20;;;;;;4968598;28;45289;-39
2023/12/08 15:36:06;;;;;;;3.40;2.92;;;23.70;24.20;;;;;;4969244;28;45621;-40
2023/12/08 15:38:32;;;;;;;3.25;2.95;;;23.70;24.20;;;;;;4959110;28;45320;-39
2023/12/08 15:40:58;;;;;;;3.45;3.05;;;23.70;24.20;;;;;;4972736;28;45502;-39
2023/12/08 15:43:23;;;;;;;3.20;2.90;;;23.70;24.20;;;;;;4969039;28;46139;-39
2023/12/08 15:45:49;;;;;;;3.38;2.95;;;23.70;24.30;;;;;;4960618;28;45461;-39
2023/12/08 15:48:14;;;;;;;4.10;3.20;;;23.70;24.30;;;;;;4959582;28;45432;-38
2023/12/08 15:50:40;;;;;;;3.20;2.90;;;23.70;24.30;;;;;;4973069;28;45215;-38
2023/12/08 15:53:06;;;;;;;3.63;3.20;;;23.70;24.30;;;;;;4976343;28;48346;-40
2023/12/08 15:55:31;;;;;;;3.53;3.15;;;23.70;24.30;;;;;;4971401;28;45549;-39
2023/12/08 15:57:57;;;;;;;3.45;3.15;;;23.70;24.30;;;;;;4977029;28;45359;-38
2023/12/08 16:00:23;;;;;;;3.88;3.28;;;23.70;24.30;;;;;;4967634;28;44752;-39
2023/12/08 16:02:48;;;;;;;3.38;3.05;;;23.70;24.30;;;;;;4965803;28;45446;-39
2023/12/08 16:05:14;;;;;;;3.30;3.00;;;23.70;24.30;;;;;;4968583;28;46437;-40
2023/12/08 16:07:39;;;;;;;3.53;3.23;;;23.60;24.30;;;;;;4971704;28;45596;-39
2023/12/08 16:10:05;;;;;;;3.67;2.97;;;23.60;24.30;;;;;;4977582;28;45655;-39
2023/12/08 16:12:31;;;;;;;3.83;2.90;;;23.60;24.40;;;;;;4961891;28;44811;-39
2023/12/08 16:14:57;;;;;;;3.47;3.07;;;23.60;24.30;;;;;;4985348;28;45662;-38
2023/12/08 16:17:22;;;;;;;3.90;3.50;;;23.60;24.30;;;;;;4924046;28;46858;-38
2023/12/08 16:19:48;;;;;;;4.10;3.40;;;23.60;24.40;;;;;;4980953;28;46274;-39
2023/12/08 16:22:14;;;;;;;3.83;3.43;;;23.60;24.40;;;;;;4968486;28;45735;-40
2023/12/08 16:24:42;;;;;;;4.07;3.35;;;23.60;24.40;;;;;;4982127;28;45657;-39
2023/12/08 16:27:08;;;;;;;3.40;3.10;;;23.60;24.40;;;;;;4948945;28;45777;-41
2023/12/08 16:29:34;;;;;;;3.15;2.78;;;23.60;24.40;;;;;;4980422;28;45641;-39
2023/12/08 16:32:00;;;;;;;3.92;3.08;;;23.60;24.40;;;;;;4941391;28;45212;-39
2023/12/08 16:34:25;;;;;;;3.47;3.10;;;23.50;24.50;;;;;;4954094;28;45680;-39
2023/12/08 16:36:51;;;;;;;3.87;3.20;;;23.50;24.40;;;;;;4978755;28;46442;-38
2023/12/08 16:39:16;;;;;;;3.50;3.20;;;23.50;24.40;;;;;;4982429;28;45680;-41
2023/12/08 16:41:47;;;;;;;3.63;3.10;;;23.50;24.40;;;;;;4984453;28;46128;-39
2023/12/08 16:44:12;;;;;;;3.95;3.40;;;23.50;24.50;;;;;;4986851;28;45509;-39
2023/12/08 16:46:38;;;;;;;3.97;3.35;;;23.50;24.50;;;;;;4967254;28;45593;-39
2023/12/08 16:49:03;;;;;;;3.70;3.20;;;23.50;24.50;;;;;;4992704;28;45150;-39
2023/12/08 16:51:29;;;;;;;3.47;3.00;;;23.50;24.50;;;;;;4969819;28;45716;-38
2023/12/08 16:53:55;;;;;;;3.67;3.30;;;23.50;24.50;;;;;;4995640;28;45486;-38
2023/12/08 16:56:20;;;;;;;3.92;3.35;;;23.50;24.50;;;;;;4975776;28;45695;-39
2023/12/08 16:58:46;;;;;;;3.93;3.13;;;23.50;24.50;;;;;;4994450;28;45151;-39
2023/12/08 17:01:12;;;;;;;3.55;3.17;;;23.50;24.50;;;;;;4957037;28;45295;-38
2023/12/08 17:03:37;;;;;;;4.45;3.67;;;23.50;24.60;;;;;;4974994;28;45583;-39
2023/12/08 17:06:03;;;;;;;3.57;3.23;;;23.50;24.60;;;;;;4975230;28;46287;-38
2023/12/08 17:08:29;;;;;;;4.17;3.43;;;23.50;24.50;;;;;;4987697;28;45869;-38
2023/12/08 17:10:55;;;;;;;3.50;3.20;;;23.40;24.50;;;;;;4956530;28;45555;-39
2023/12/08 17:13:20;;;;;;;3.83;3.43;;;23.40;25.00;;;;;;4968121;28;45444;-39
2023/12/08 17:15:46;;;;;;;3.83;3.30;;;23.40;24.60;;;;;;4955451;28;45578;-38
2023/12/08 17:18:12;;;;;;;3.90;3.30;;;23.40;24.60;;;;;;4949800;28;45462;-38
2023/12/08 17:20:37;;;;;;;3.97;3.27;;;23.40;24.60;;;;;;4965615;28;45484;-38
2023/12/08 17:23:03;;;;;;;4.63;3.43;;;23.40;24.60;;;;;;4968757;28;46067;-40
2023/12/08 17:25:29;;;;;;;5.05;3.60;;;23.40;24.60;;;;;;4965207;28;46213;-39
2023/12/08 17:27:55;;;;;;;4.05;3.53;;;23.40;24.60;;;;;;4974537;28;45802;-38
2023/12/08 17:30:20;;;;;;;3.83;3.43;;;23.40;24.60;;;;;;4961029;28;45417;-38
2023/12/08 17:32:46;;;;;;;4.10;3.50;;;23.30;24.60;;;;;;4937290;28;46005;-40
2023/12/08 17:35:11;;;;;;;4.00;3.47;;;23.30;24.60;;;;;;4946939;28;45657;-39
2023/12/08 17:37:37;;;;;;;3.50;3.20;;;23.30;25.10;;;;;;4970115;28;45189;-39
2023/12/08 17:40:08;;;;;;;4.55;3.22;;;23.30;24.70;;;;;;4976671;28;45396;-38
2023/12/08 17:42:34;;;;;;;3.80;3.38;;;23.30;24.70;;;;;;4975305;28;45237;-39
2023/12/08 17:45:00;;;;;;;4.45;3.55;;;23.30;24.70;;;;;;4974606;28;45301;-42
2023/12/08 17:47:25;;;;;;;4.38;3.78;;;23.30;24.70;;;;;;4944990;28;45199;-39
2023/12/08 17:49:51;;;;;;;4.05;3.60;;;23.30;24.70;;;;;;4968056;28;46429;-42
2023/12/08 17:52:23;;;;;;;4.38;3.90;;;23.30;24.70;;;;;;4958348;28;45300;-41
2023/12/08 17:54:49;;;;;;;5.10;3.90;;;23.30;24.80;;;;;;4978631;28;45229;-41
2023/12/08 17:57:15;;;;;;;3.40;3.10;;;23.30;24.70;;;;;;4960006;28;45362;-41
2023/12/08 17:59:40;;;;;;;4.72;3.80;;;23.30;24.80;;;;;;4977503;28;45176;-41
2023/12/08 18:02:06;;;;;;;3.90;3.47;;;23.30;24.80;;;;;;4959598;28;47287;-42
2023/12/08 18:04:31;;;;;;;4.47;3.65;;;23.30;24.80;;;;;;4976106;28;45281;-41
2023/12/08 18:06:57;;;;;;;4.28;3.63;;;23.20;24.80;;;;;;4951495;28;45651;-42
2023/12/08 18:09:22;;;;;;;4.32;3.65;;;23.20;24.80;;;;;;4966761;28;46360;-41
2023/12/08 18:11:48;;;;;;;4.80;3.95;;;23.30;24.80;;;;;;4983267;28;47310;-41
2023/12/08 18:14:14;;;;;;;4.20;3.80;;;23.20;24.80;;;;;;4996683;28;45446;-41
2023/12/08 18:16:44;;;;;;;4.10;3.70;;;23.20;24.80;;;;;;4981010;28;45695;-41